Time;durP1;ratioP1;P1;durP2;ratioP2;P2;SDS_P1;SDS_P2;PMS_P1;PMS_P2;Temp;Humidity;BMP_temperature;BMP_pressure;BME280_temperature;BME280_humidity;BME280_pressure;Samples;Min_cycle;Max_cycle;Signal;HPM_P1;HPM_P2
2022/04/27 00:01:17;;;;;;;4.50;3.40;;;18.10;53.50;19.20;101359.00;;;;5006705;28;20272;-51
2022/04/27 00:03:43;;;;;;;3.63;3.33;;;18.10;53.40;19.20;101357.00;;;;4988960;28;20195;-50
2022/04/27 00:06:09;;;;;;;3.50;3.20;;;18.10;53.50;19.10;101357.00;;;;5006560;28;20187;-50
2022/04/27 00:08:35;;;;;;;3.83;3.40;;;18.00;53.40;19.10;101356.00;;;;5010538;28;20167;-50
2022/04/27 00:11:00;;;;;;;3.73;3.40;;;18.00;53.40;18.90;101342.00;;;;5006724;28;20175;-49
2022/04/27 00:13:26;;;;;;;3.50;3.20;;;18.00;53.40;19.10;101344.00;;;;5006238;28;20199;-50
2022/04/27 00:15:52;;;;;;;3.50;3.20;;;18.00;53.40;19.10;101351.00;;;;5006545;28;20732;-50
2022/04/27 00:18:18;;;;;;;3.43;3.10;;;18.00;53.40;19.00;101351.00;;;;5005037;28;20774;-51
2022/04/27 00:20:43;;;;;;;3.40;3.07;;;18.00;53.30;19.00;101342.00;;;;5006508;28;20207;-49
2022/04/27 00:23:09;;;;;;;3.40;3.10;;;18.00;53.40;19.00;101338.00;;;;5014297;28;20191;-51
2022/04/27 00:25:35;;;;;;;3.40;3.10;;;18.00;53.40;19.00;101355.00;;;;5016086;28;20182;-50
2022/04/27 00:28:01;;;;;;;3.50;3.20;;;18.00;53.40;19.00;101352.00;;;;5017206;28;20269;-50
2022/04/27 00:30:26;;;;;;;3.30;3.00;;;17.90;53.30;19.00;101358.00;;;;5017363;28;20167;-51
2022/04/27 00:32:52;;;;;;;3.37;3.07;;;17.90;53.30;19.00;101356.00;;;;5012046;28;20254;-50
2022/04/27 00:35:18;;;;;;;3.27;2.97;;;17.90;53.30;19.00;101359.00;;;;5016564;28;20193;-50
2022/04/27 00:37:43;;;;;;;3.27;2.97;;;17.90;53.30;18.90;101362.00;;;;5007669;28;20247;-50
2022/04/27 00:40:10;;;;;;;3.13;2.83;;;17.90;53.30;18.90;101362.00;;;;5021250;28;20857;-50
2022/04/27 00:42:37;;;;;;;3.30;3.00;;;17.90;53.30;18.90;101367.00;;;;5005739;28;20206;-50
2022/04/27 00:45:04;;;;;;;3.40;3.10;;;17.90;53.20;18.90;101361.00;;;;5006312;28;20206;-49
2022/04/27 00:47:30;;;;;;;3.90;3.10;;;17.90;53.20;18.90;101368.00;;;;5005826;28;20178;-50
2022/04/27 00:49:57;;;;;;;3.30;3.10;;;17.80;53.20;18.90;101370.00;;;;5005950;28;20586;-50
2022/04/27 00:52:23;;;;;;;3.40;3.10;;;17.80;53.20;18.90;101368.00;;;;5005707;28;20273;-51
2022/04/27 00:54:52;;;;;;;3.40;3.10;;;17.80;53.30;18.90;101371.00;;;;4989861;28;20265;-50
2022/04/27 00:57:27;;;;;;;3.23;2.93;;;17.80;53.20;18.90;101372.00;;;;5008711;28;20188;-50
2022/04/27 00:59:53;;;;;;;3.23;2.90;;;17.80;53.20;18.80;101369.00;;;;5009883;28;20627;-50
2022/04/27 01:02:19;;;;;;;3.13;2.87;;;17.80;53.20;18.80;101379.00;;;;5009180;28;20212;-49
2022/04/27 01:04:45;;;;;;;3.70;3.10;;;17.70;53.10;18.80;101380.00;;;;5009823;28;20205;-49
2022/04/27 01:07:11;;;;;;;3.40;3.10;;;17.80;53.20;18.80;101386.00;;;;5008417;28;20183;-50
2022/04/27 01:09:37;;;;;;;3.13;2.83;;;17.80;53.20;18.80;101374.00;;;;5009676;28;20646;-50
2022/04/27 01:12:04;;;;;;;3.30;3.00;;;17.80;53.20;18.80;101386.00;;;;5009485;28;20226;-51
2022/04/27 01:14:42;;;;;;;3.50;3.13;;;17.70;53.20;18.80;101400.00;;;;5009180;28;20192;-51
2022/04/27 01:17:08;;;;;;;3.47;3.17;;;17.70;53.20;18.70;101393.00;;;;5008355;28;20179;-51
2022/04/27 01:19:34;;;;;;;3.47;3.17;;;17.70;53.20;18.50;101385.00;;;;5009974;28;20772;-50
2022/04/27 01:21:59;;;;;;;3.33;3.00;;;17.70;53.30;18.70;101395.00;;;;5009403;28;20240;-51
2022/04/27 01:24:25;;;;;;;3.13;2.83;;;17.70;53.20;18.70;101391.00;;;;5008277;28;20202;-50
2022/04/27 01:26:53;;;;;;;3.47;3.17;;;17.70;53.20;18.70;101393.00;;;;5009235;28;20175;-51
2022/04/27 01:29:22;;;;;;;3.40;2.90;;;17.70;53.20;18.70;101400.00;;;;5009613;28;20168;-50
2022/04/27 01:31:47;;;;;;;3.57;3.27;;;17.70;53.30;18.70;101406.00;;;;5009335;28;20172;-51
2022/04/27 01:34:13;;;;;;;3.23;2.93;;;17.70;53.20;18.70;101405.00;;;;5009169;28;20267;-51
2022/04/27 01:36:39;;;;;;;3.30;3.00;;;17.60;53.30;18.70;101410.00;;;;5009120;28;20211;-50
2022/04/27 01:39:05;;;;;;;3.23;2.87;;;17.60;53.20;18.70;101397.00;;;;5011004;28;20172;-50
2022/04/27 01:41:31;;;;;;;3.30;3.00;;;17.60;53.20;18.70;101394.00;;;;5016370;28;20720;-49
2022/04/27 01:43:57;;;;;;;3.67;2.90;;;17.60;53.20;18.60;101400.00;;;;5011316;28;20208;-50
2022/04/27 01:46:24;;;;;;;3.20;2.90;;;17.60;53.30;18.60;101386.00;;;;5008913;28;20193;-50
2022/04/27 01:48:50;;;;;;;3.80;2.87;;;17.60;53.30;18.60;101391.00;;;;5009028;28;20536;-50
2022/04/27 01:51:17;;;;;;;3.50;3.00;;;17.60;53.30;18.60;101394.00;;;;5008745;28;20238;-50
2022/04/27 01:56:28;;;;;;;3.43;3.13;;;17.60;53.30;18.60;101395.00;;;;5008852;28;20633;-50
2022/04/27 01:58:54;;;;;;;3.87;2.90;;;17.50;53.20;18.60;101397.00;;;;5013429;28;20176;-50
2022/04/27 02:01:21;;;;;;;3.17;2.90;;;17.50;53.30;18.50;101396.00;;;;5008491;28;20192;-50
2022/04/27 02:03:47;;;;;;;3.33;3.03;;;17.50;53.20;18.50;101403.00;;;;5008284;28;20265;-51
2022/04/27 02:06:16;;;;;;;3.20;2.90;;;17.50;53.30;18.50;101404.00;;;;5007754;28;20281;-50
2022/04/27 02:08:42;;;;;;;3.20;2.90;;;17.50;53.30;18.50;101402.00;;;;5009826;28;20165;-50
2022/04/27 02:11:08;;;;;;;2.90;2.70;;;17.50;53.30;18.50;101402.00;;;;5009885;28;20165;-50
2022/04/27 02:13:34;;;;;;;3.30;3.00;;;17.50;53.30;18.50;101407.00;;;;5008617;28;20319;-50
2022/04/27 02:16:01;;;;;;;3.40;3.00;;;17.50;53.30;18.50;101402.00;;;;5007774;28;20270;-51
2022/04/27 02:18:27;;;;;;;3.77;2.90;;;17.40;53.30;18.50;101408.00;;;;5008595;28;20786;-50
2022/04/27 02:20:52;;;;;;;3.50;3.20;;;17.40;53.30;18.50;101410.00;;;;5008796;28;20238;-50
2022/04/27 02:23:20;;;;;;;3.60;3.30;;;17.50;53.30;18.40;101423.00;;;;5008388;28;20226;-50
2022/04/27 02:25:46;;;;;;;3.13;2.83;;;17.40;53.20;18.40;101420.00;;;;5008525;28;20218;-50
2022/04/27 02:28:12;;;;;;;3.40;3.10;;;17.40;53.30;18.40;101418.00;;;;5008117;28;20256;-50
2022/04/27 02:30:38;;;;;;;3.10;2.83;;;17.40;53.30;18.40;101427.00;;;;5008140;28;20163;-50
2022/04/27 02:33:03;;;;;;;3.00;2.80;;;17.40;53.30;18.40;101427.00;;;;5008025;28;20659;-50
2022/04/27 02:35:29;;;;;;;3.77;3.20;;;17.40;53.30;18.40;101417.00;;;;5008252;28;20174;-50
2022/04/27 02:37:56;;;;;;;3.23;3.00;;;17.40;53.30;18.40;101427.00;;;;5007914;28;20258;-50
2022/04/27 02:40:21;;;;;;;3.10;2.90;;;17.40;53.30;18.30;101438.00;;;;5008519;28;20172;-50
2022/04/27 02:42:47;;;;;;;3.20;2.90;;;17.40;53.30;18.40;101438.00;;;;5006487;28;20218;-50
2022/04/27 02:45:13;;;;;;;3.07;2.73;;;17.30;53.20;18.40;101427.00;;;;5009126;28;21017;-50
2022/04/27 02:47:39;;;;;;;3.30;2.93;;;17.30;53.20;18.30;101431.00;;;;5012408;28;20816;-50
2022/04/27 02:52:49;;;;;;;5.17;3.03;;;17.30;53.20;18.30;101422.00;;;;5007585;28;20195;-50
2022/04/27 02:55:15;;;;;;;3.30;3.00;;;17.30;53.20;18.30;101432.00;;;;5007604;28;20167;-50
2022/04/27 02:57:41;;;;;;;3.30;3.00;;;17.20;53.20;18.30;101437.00;;;;5007694;28;20158;-49
2022/04/27 03:00:07;;;;;;;3.20;3.00;;;17.30;53.30;18.30;101442.00;;;;5007868;28;20690;-50
2022/04/27 03:02:33;;;;;;;3.20;3.00;;;17.30;53.30;18.30;101436.00;;;;5007603;28;20288;-50
2022/04/27 03:05:00;;;;;;;3.73;3.17;;;17.30;53.20;18.30;101448.00;;;;5007773;28;20718;-49
2022/04/27 03:07:28;;;;;;;2.93;2.73;;;17.30;53.30;18.30;101440.00;;;;5007418;28;20201;-50
2022/04/27 03:09:55;;;;;;;3.13;2.83;;;17.20;53.20;18.30;101436.00;;;;5010374;28;20210;-50
2022/04/27 03:12:20;;;;;;;3.27;2.90;;;17.30;53.20;18.30;101445.00;;;;5006296;28;20926;-50
2022/04/27 03:14:46;;;;;;;3.90;3.10;;;17.20;53.20;18.30;101430.00;;;;5007709;28;20181;-49
2022/04/27 03:17:12;;;;;;;3.30;3.00;;;17.20;53.10;18.20;101439.00;;;;5006866;28;20407;-50
2022/04/27 03:19:38;;;;;;;3.77;3.23;;;17.20;53.10;18.20;101436.00;;;;5007450;28;20171;-48
2022/04/27 03:22:04;;;;;;;3.33;3.03;;;17.20;53.20;18.20;101433.00;;;;5007168;28;20175;-50
2022/04/27 03:24:30;;;;;;;3.50;3.00;;;17.20;53.20;18.20;101445.00;;;;5006811;28;20208;-50
2022/04/27 03:26:55;;;;;;;3.70;3.20;;;17.20;53.20;18.20;101438.00;;;;5007408;28;20168;-51
2022/04/27 03:29:21;;;;;;;4.57;3.40;;;17.20;53.20;18.20;101445.00;;;;5007257;28;20180;-50
2022/04/27 03:31:47;;;;;;;3.43;3.10;;;17.20;53.30;18.20;101446.00;;;;5007069;28;20542;-50
2022/04/27 03:34:12;;;;;;;3.83;3.07;;;17.20;53.20;18.20;101450.00;;;;5006927;28;20192;-50
2022/04/27 03:36:38;;;;;;;5.20;2.90;;;17.20;53.20;18.20;101442.00;;;;5006927;28;20840;-50
2022/04/27 03:39:04;;;;;;;4.43;3.10;;;17.10;53.10;18.20;101453.00;;;;5006942;28;20176;-50
2022/04/27 03:41:30;;;;;;;6.60;3.17;;;17.10;53.00;18.20;101460.00;;;;4998430;28;20180;-51
2022/04/27 03:43:55;;;;;;;6.17;3.10;;;17.10;53.00;18.20;101453.00;;;;5004860;28;20210;-50
2022/04/27 03:46:21;;;;;;;4.40;2.83;;;17.10;53.10;18.20;101460.00;;;;5006519;28;20606;-49
2022/04/27 03:48:47;;;;;;;6.50;3.20;;;17.10;53.00;18.20;101461.00;;;;5006812;28;20160;-50
2022/04/27 03:51:13;;;;;;;5.47;3.30;;;17.10;53.00;18.20;101468.00;;;;5006571;28;20179;-49
2022/04/27 03:53:39;;;;;;;5.40;3.20;;;17.10;53.00;18.20;101473.00;;;;5006404;28;20727;-50
2022/04/27 03:56:05;;;;;;;3.50;2.63;;;17.00;52.90;18.20;101465.00;;;;5004996;28;20789;-50
2022/04/27 03:58:31;;;;;;;8.27;3.00;;;17.10;53.00;18.20;101464.00;;;;5006541;28;20173;-49
2022/04/27 04:00:57;;;;;;;4.37;3.00;;;17.10;52.90;18.20;101476.00;;;;5005166;28;20195;-50
2022/04/27 04:03:23;;;;;;;3.50;2.90;;;17.00;52.90;18.20;101476.00;;;;5006379;28;20443;-49
2022/04/27 04:05:49;;;;;;;5.33;3.10;;;17.00;52.80;18.10;101477.00;;;;5006124;28;20183;-50
2022/04/27 04:08:15;;;;;;;5.27;3.30;;;17.00;52.90;18.10;101404.00;;;;5005894;28;20199;-50
2022/04/27 04:10:41;;;;;;;4.50;2.90;;;17.00;52.80;18.10;101481.00;;;;5005977;28;20168;-49
2022/04/27 04:13:06;;;;;;;4.27;2.90;;;17.00;52.80;18.10;101480.00;;;;5021841;28;20618;-49
2022/04/27 04:15:32;;;;;;;3.10;2.73;;;17.00;52.80;18.10;101489.00;;;;5010543;28;20583;-49
2022/04/27 04:17:58;;;;;;;4.67;3.00;;;17.00;52.80;18.10;101488.00;;;;5005723;28;20182;-49
2022/04/27 04:20:24;;;;;;;4.83;3.30;;;17.00;52.80;18.10;101493.00;;;;5005397;28;20160;-49
2022/04/27 04:22:49;;;;;;;3.63;2.77;;;17.00;52.80;18.10;101500.00;;;;5005650;28;20203;-51
2022/04/27 04:30:44;;;;;;;5.83;3.00;;;17.00;52.80;18.00;101497.00;;;;5005998;28;20162;-51
2022/04/27 04:33:10;;;;;;;3.17;2.53;;;16.90;52.80;18.00;101508.00;;;;5005055;28;20197;-50
2022/04/27 04:35:36;;;;;;;4.80;2.80;;;16.90;52.80;18.00;101506.00;;;;5005511;28;20200;-51
2022/04/27 04:38:03;;;;;;;5.60;2.87;;;16.90;52.80;18.00;101508.00;;;;5005008;28;20164;-51
2022/04/27 04:40:29;;;;;;;4.57;3.00;;;16.90;52.80;18.00;101511.00;;;;5007114;28;20173;-51
2022/04/27 04:42:54;;;;;;;4.23;2.83;;;16.90;52.90;18.00;101510.00;;;;5012803;28;20512;-50
2022/04/27 04:45:20;;;;;;;3.40;2.50;;;16.90;53.00;18.00;101515.00;;;;5020623;28;20187;-52
2022/04/27 04:47:46;;;;;;;3.97;2.77;;;16.90;53.00;18.00;101516.00;;;;5020356;28;20213;-51
2022/04/27 04:50:12;;;;;;;3.67;3.10;;;16.90;53.00;18.00;101529.00;;;;5023335;28;20172;-50
2022/04/27 04:52:38;;;;;;;2.60;2.40;;;16.90;53.00;18.00;101520.00;;;;5001090;28;20235;-51
2022/04/27 04:55:04;;;;;;;2.90;2.63;;;16.90;53.00;18.00;101533.00;;;;5013418;28;20203;-51
2022/04/27 04:57:29;;;;;;;3.03;2.80;;;16.90;53.10;18.00;101537.00;;;;5007352;28;20180;-50
2022/04/27 04:59:55;;;;;;;3.27;2.60;;;16.90;53.10;17.90;101532.00;;;;5005597;28;20226;-51
2022/04/27 05:02:21;;;;;;;3.73;2.37;;;16.80;53.00;17.90;101529.00;;;;5005628;28;20215;-51
2022/04/27 05:04:46;;;;;;;3.07;2.70;;;16.80;53.00;17.90;101539.00;;;;5005233;28;20995;-51
2022/04/27 05:07:12;;;;;;;2.70;2.50;;;16.80;53.00;17.90;101534.00;;;;5005369;28;20168;-50
2022/04/27 05:09:38;;;;;;;4.27;2.70;;;16.80;53.00;17.90;101545.00;;;;5005400;28;20180;-50
2022/04/27 05:12:04;;;;;;;2.73;2.47;;;16.80;53.00;17.90;101545.00;;;;5005166;28;20175;-50
2022/04/27 05:14:30;;;;;;;2.80;2.60;;;16.80;53.00;17.90;101554.00;;;;5005721;28;20233;-50
2022/04/27 05:16:56;;;;;;;4.17;2.60;;;16.80;53.00;17.90;101553.00;;;;5005056;28;20195;-50
2022/04/27 05:19:22;;;;;;;3.77;3.10;;;16.80;53.00;17.90;101552.00;;;;5010539;28;20198;-50
2022/04/27 05:21:49;;;;;;;3.70;2.70;;;16.80;53.00;17.90;101545.00;;;;5011726;28;20171;-50
2022/04/27 05:24:15;;;;;;;4.30;2.90;;;16.80;52.90;17.90;101560.00;;;;5006023;28;20290;-51
2022/04/27 05:26:41;;;;;;;3.97;2.60;;;16.70;52.80;17.80;101562.00;;;;5004923;28;20825;-50
2022/04/27 05:32:00;;;;;;;3.00;2.70;;;16.70;52.90;17.80;101574.00;;;;5005584;28;20651;-49
2022/04/27 05:34:29;;;;;;;3.43;2.40;;;16.70;52.80;17.80;101578.00;;;;5020538;28;20202;-49
2022/04/27 05:36:56;;;;;;;2.80;2.60;;;16.70;52.80;17.80;101579.00;;;;5004895;28;20175;-50
2022/04/27 05:39:21;;;;;;;2.57;2.37;;;16.70;52.80;17.80;101582.00;;;;5005626;28;20181;-50
2022/04/27 05:41:50;;;;;;;3.03;2.60;;;16.70;52.80;17.80;101596.00;;;;5008046;28;20168;-50
2022/04/27 05:44:19;;;;;;;2.87;2.60;;;16.70;52.80;17.80;101584.00;;;;5008470;28;20481;-50
2022/04/27 05:46:45;;;;;;;3.97;2.57;;;16.70;52.80;17.80;101584.00;;;;5008491;28;20259;-50
2022/04/27 05:49:12;;;;;;;4.43;2.50;;;16.70;52.80;17.80;101580.00;;;;5008969;28;20665;-50
2022/04/27 05:51:37;;;;;;;3.30;2.73;;;16.70;52.80;17.80;101589.00;;;;5008681;28;20180;-49
2022/04/27 05:54:03;;;;;;;3.70;2.60;;;16.70;52.70;17.80;101586.00;;;;5008203;28;20214;-49
2022/04/27 05:56:29;;;;;;;2.83;2.63;;;16.60;52.70;17.70;101592.00;;;;5009587;28;20175;-53
2022/04/27 05:58:54;;;;;;;3.33;2.70;;;16.70;52.70;17.70;101599.00;;;;5011535;28;20750;-51
2022/04/27 06:01:20;;;;;;;2.63;2.40;;;16.60;52.70;17.70;101594.00;;;;5009646;28;20924;-51
2022/04/27 06:03:46;;;;;;;2.70;2.50;;;16.60;52.70;17.70;101591.00;;;;5008922;28;20234;-51
2022/04/27 06:06:11;;;;;;;3.00;2.70;;;16.70;52.70;17.70;101582.00;;;;5008351;28;20879;-49
2022/04/27 06:08:37;;;;;;;2.90;2.60;;;16.60;52.70;17.70;101584.00;;;;5008873;28;20168;-49
2022/04/27 06:11:03;;;;;;;2.57;2.37;;;16.60;52.70;17.70;101603.00;;;;5008826;28;20245;-52
2022/04/27 06:13:30;;;;;;;2.57;2.37;;;16.60;52.60;17.70;101598.00;;;;5008054;28;20223;-49
2022/04/27 06:15:56;;;;;;;2.50;2.30;;;16.60;52.70;17.70;101597.00;;;;5007067;28;20183;-50
2022/04/27 06:18:21;;;;;;;2.77;2.43;;;16.60;52.90;17.70;101612.00;;;;5008454;28;20179;-50
2022/04/27 06:20:47;;;;;;;2.60;2.40;;;16.60;52.60;17.70;101617.00;;;;5007044;28;20706;-50
2022/04/27 06:23:16;;;;;;;2.90;2.40;;;16.60;52.70;17.70;101609.00;;;;5007918;28;20183;-50
2022/04/27 06:25:43;;;;;;;2.50;2.30;;;16.60;52.70;17.70;101616.00;;;;5007596;28;20164;-50
2022/04/27 06:28:09;;;;;;;2.50;2.30;;;16.60;52.70;17.70;101615.00;;;;5008435;28;20172;-50
2022/04/27 06:30:37;;;;;;;4.13;2.50;;;16.60;52.70;17.60;101620.00;;;;5008381;28;20191;-50
2022/04/27 06:33:03;;;;;;;2.93;2.40;;;16.60;52.70;17.60;101612.00;;;;5007842;28;20709;-50
2022/04/27 06:35:29;;;;;;;2.73;2.50;;;16.60;52.70;17.60;101616.00;;;;5007536;28;20179;-50
2022/04/27 06:37:54;;;;;;;2.60;2.40;;;16.50;52.60;17.60;101629.00;;;;5007445;28;20180;-49
2022/04/27 06:40:20;;;;;;;2.93;2.63;;;16.60;52.70;17.60;101612.00;;;;5008043;28;20175;-50
2022/04/27 06:42:46;;;;;;;2.50;2.30;;;16.50;52.50;17.60;101623.00;;;;5006236;28;20836;-50
2022/04/27 06:45:11;;;;;;;2.70;2.50;;;16.50;52.60;17.40;101625.00;;;;5007272;28;20200;-51
2022/04/27 06:47:37;;;;;;;2.50;2.30;;;16.50;52.50;17.60;101624.00;;;;5007417;28;20168;-50
2022/04/27 06:50:03;;;;;;;2.90;2.60;;;16.50;52.50;17.60;101633.00;;;;5007664;28;20168;-51
2022/04/27 06:52:29;;;;;;;2.70;2.50;;;16.50;52.50;17.60;101631.00;;;;5006643;28;20203;-50
2022/04/27 06:54:54;;;;;;;2.67;2.47;;;16.50;52.60;17.60;101629.00;;;;5007981;28;20184;-50
2022/04/27 06:57:20;;;;;;;2.63;2.43;;;16.50;52.50;17.60;101635.00;;;;5007638;28;20680;-50
2022/04/27 06:59:46;;;;;;;2.37;2.17;;;16.50;52.60;17.60;101619.00;;;;5007495;28;20171;-50
2022/04/27 07:02:13;;;;;;;2.67;2.47;;;16.50;52.60;17.60;101636.00;;;;5007097;28;20188;-50
2022/04/27 07:04:48;;;;;;;2.40;2.20;;;16.50;52.60;17.60;101639.00;;;;5007579;28;20224;-50
2022/04/27 07:07:14;;;;;;;2.60;2.40;;;16.40;52.50;17.50;101633.00;;;;5007349;28;20210;-50
2022/04/27 07:09:40;;;;;;;2.50;2.30;;;16.50;52.70;17.50;101595.00;;;;5006131;28;20168;-51
2022/04/27 07:12:06;;;;;;;2.67;2.40;;;16.50;52.60;17.50;101649.00;;;;5006179;28;20167;-51
2022/04/27 07:14:31;;;;;;;2.53;2.33;;;16.50;52.60;17.50;101646.00;;;;5009843;28;20190;-51
2022/04/27 07:16:57;;;;;;;2.30;2.10;;;16.40;52.60;17.50;101647.00;;;;5007278;28;20176;-50
2022/04/27 07:19:23;;;;;;;2.20;2.10;;;16.50;52.70;17.50;101649.00;;;;5007303;28;20171;-51
2022/04/27 07:21:49;;;;;;;2.40;2.00;;;16.40;52.60;17.50;101647.00;;;;5007127;28;20226;-50
2022/04/27 07:24:14;;;;;;;2.53;2.33;;;16.40;52.70;17.50;101649.00;;;;5006588;28;20239;-50
2022/04/27 07:26:40;;;;;;;2.60;2.40;;;16.40;52.70;17.50;101655.00;;;;5006027;28;20172;-50
2022/04/27 07:29:08;;;;;;;2.77;2.40;;;16.40;52.80;17.50;101643.00;;;;5005765;28;20167;-50
2022/04/27 07:31:33;;;;;;;2.30;2.10;;;16.40;52.80;17.50;101650.00;;;;5006912;28;20207;-50
2022/04/27 07:33:59;;;;;;;2.40;2.20;;;16.40;52.80;17.20;101662.00;;;;5006532;28;20652;-49
2022/04/27 07:36:25;;;;;;;2.67;2.47;;;16.40;52.90;17.50;101648.00;;;;5006200;28;20178;-50
2022/04/27 07:38:50;;;;;;;2.30;2.10;;;16.40;52.90;17.50;101659.00;;;;5007034;28;20210;-50
2022/04/27 07:41:16;;;;;;;2.53;2.33;;;16.40;52.90;17.50;101652.00;;;;5006884;28;20691;-49
2022/04/27 07:43:42;;;;;;;2.40;2.20;;;16.40;52.90;17.40;101646.00;;;;5005990;28;20214;-49
2022/04/27 07:46:09;;;;;;;2.43;2.23;;;16.50;53.00;17.40;101668.00;;;;5006588;28;20171;-49
2022/04/27 07:48:35;;;;;;;4.07;2.30;;;16.40;53.00;17.40;101659.00;;;;5006998;28;20175;-49
2022/04/27 07:51:02;;;;;;;2.73;2.37;;;16.40;53.40;17.50;101662.00;;;;5006295;28;20163;-49
2022/04/27 07:53:28;;;;;;;2.50;2.30;;;16.30;53.40;17.40;101659.00;;;;4930737;28;21414;-50
2022/04/27 07:55:54;;;;;;;4.73;2.43;;;16.30;53.70;17.40;101661.00;;;;5005073;28;20541;-50
2022/04/27 07:58:20;;;;;;;3.33;2.37;;;16.30;54.30;17.40;101646.00;;;;5005805;28;20266;-49
2022/04/27 08:00:45;;;;;;;2.67;2.30;;;16.30;53.90;17.40;101668.00;;;;5006434;28;20668;-50
2022/04/27 08:03:11;;;;;;;3.27;2.40;;;16.30;53.80;17.40;101669.00;;;;5005591;28;20246;-49
2022/04/27 08:05:37;;;;;;;3.80;2.40;;;16.30;53.90;17.40;101670.00;;;;5005802;28;20731;-48
2022/04/27 08:08:03;;;;;;;4.83;2.30;;;16.30;54.20;17.40;101667.00;;;;5006538;28;20699;-49
2022/04/27 08:10:29;;;;;;;2.77;2.37;;;16.30;53.90;17.40;101671.00;;;;5006368;28;20171;-50
2022/04/27 08:12:55;;;;;;;3.17;2.33;;;16.30;53.90;17.40;101668.00;;;;5006126;28;20199;-51
2022/04/27 08:15:22;;;;;;;3.03;2.20;;;16.40;54.00;17.40;101666.00;;;;5006251;28;20215;-49
2022/04/27 08:18:14;;;;;;;3.70;2.43;;;16.30;53.90;17.40;101672.00;;;;5005564;28;20210;-48
2022/04/27 08:23:29;;;;;;;2.67;2.33;;;16.30;54.10;17.40;101680.00;;;;5006123;28;20210;-49
2022/04/27 08:25:56;;;;;;;2.50;2.30;;;16.30;54.10;17.30;101672.00;;;;5005269;28;20179;-50
2022/04/27 08:28:21;;;;;;;3.50;2.30;;;16.30;54.10;17.30;101678.00;;;;5006478;28;20267;-50
2022/04/27 08:30:48;;;;;;;2.80;2.13;;;16.30;54.30;17.40;101675.00;;;;5006350;28;20198;-50
2022/04/27 08:33:14;;;;;;;2.90;2.40;;;16.30;54.90;17.40;101676.00;;;;5007327;28;20199;-50
2022/04/27 08:35:40;;;;;;;2.67;2.17;;;16.40;55.40;17.30;101687.00;;;;5014754;28;20184;-50
2022/04/27 08:38:06;;;;;;;4.47;2.40;;;16.40;55.50;17.40;101689.00;;;;5014678;28;20229;-49
2022/04/27 08:40:34;;;;;;;4.20;2.40;;;16.40;55.60;17.40;101690.00;;;;5013211;28;20167;-52
2022/04/27 08:43:01;;;;;;;3.37;2.30;;;16.40;55.70;17.40;101692.00;;;;5010802;28;20195;-49
2022/04/27 08:45:27;;;;;;;2.47;2.23;;;16.40;55.70;17.40;101681.00;;;;5007134;28;20698;-49
2022/04/27 08:47:53;;;;;;;2.83;2.20;;;16.40;55.70;17.40;101692.00;;;;5005159;28;20176;-50
2022/04/27 08:50:21;;;;;;;2.40;2.20;;;16.40;55.70;17.40;101703.00;;;;5005640;28;20172;-50
2022/04/27 08:52:47;;;;;;;2.90;2.20;;;16.40;55.70;17.40;101688.00;;;;5004873;28;20195;-50
2022/04/27 08:55:13;;;;;;;10.63;2.50;;;16.50;55.90;17.40;101684.00;;;;4939587;28;20174;-50
2022/04/27 08:57:39;;;;;;;8.43;3.10;;;16.50;55.80;17.40;101683.00;;;;5005488;28;20172;-50
2022/04/27 09:00:08;;;;;;;17.00;2.93;;;16.50;55.80;17.40;101687.00;;;;5005772;28;20171;-50
2022/04/27 09:02:33;;;;;;;7.80;3.10;;;16.50;55.90;17.40;101690.00;;;;5005509;28;20207;-50
2022/04/27 09:05:10;;;;;;;8.27;2.47;;;16.50;56.00;17.40;101693.00;;;;5005208;28;20691;-49
2022/04/27 09:07:57;;;;;;;5.70;2.63;;;16.60;56.40;17.40;101696.00;;;;5005460;28;20240;-50
2022/04/27 09:10:24;;;;;;;4.33;2.70;;;16.60;56.10;17.40;101686.00;;;;5005911;28;20175;-50
2022/04/27 09:12:51;;;;;;;6.27;2.50;;;16.60;56.00;17.40;101691.00;;;;5005221;28;20191;-49
2022/04/27 09:15:20;;;;;;;8.53;2.93;;;16.60;56.10;17.40;101699.00;;;;5005856;28;20258;-49
2022/04/27 09:20:50;;;;;;;12.73;3.40;;;16.60;57.20;17.40;101691.00;;;;5009179;28;20709;-50
2022/04/27 09:23:39;;;;;;;10.67;3.23;;;16.60;56.40;17.50;101692.00;;;;5010732;28;20435;-50
2022/04/27 09:26:19;;;;;;;9.07;3.03;;;16.60;56.20;17.50;101699.00;;;;5018483;28;20243;-51
2022/04/27 09:28:53;;;;;;;13.03;2.90;;;16.70;56.30;17.50;101698.00;;;;5012846;28;20754;-50
2022/04/27 09:31:45;;;;;;;12.60;3.00;;;16.70;56.60;17.50;101696.00;;;;5007285;28;20159;-49
2022/04/27 09:34:28;;;;;;;11.80;3.40;;;16.70;57.30;17.50;101692.00;;;;5010467;28;20211;-50
2022/04/27 09:37:04;;;;;;;7.63;3.03;;;16.70;57.20;17.50;101696.00;;;;5009996;28;20179;-50
2022/04/27 09:39:30;;;;;;;7.50;2.67;;;16.70;57.10;17.50;101692.00;;;;5009297;28;20175;-49
2022/04/27 09:42:04;;;;;;;7.73;2.43;;;16.70;57.00;17.50;101689.00;;;;5007671;28;20178;-50
2022/04/27 09:44:35;;;;;;;8.53;2.90;;;16.70;56.90;17.50;101694.00;;;;5013193;28;20195;-55
2022/04/27 09:47:04;;;;;;;7.53;2.47;;;16.70;56.80;17.50;101697.00;;;;5021438;28;20277;-50
2022/04/27 09:49:31;;;;;;;7.10;2.57;;;16.70;56.80;17.50;101700.00;;;;5018781;28;20172;-51
2022/04/27 09:51:58;;;;;;;9.10;2.60;;;16.80;56.90;17.60;101698.00;;;;5016130;28;20170;-50
2022/04/27 09:54:32;;;;;;;9.07;2.93;;;16.70;56.70;17.60;101705.00;;;;4958073;28;20282;-49
2022/04/27 09:56:59;;;;;;;5.27;2.60;;;16.80;56.80;17.60;101690.00;;;;5030913;28;20634;-50
2022/04/27 09:59:36;;;;;;;6.67;2.60;;;16.80;56.90;17.60;101688.00;;;;5028720;28;20262;-50
2022/04/27 10:02:07;;;;;;;4.93;2.50;;;16.80;56.90;17.60;101699.00;;;;5028214;28;20605;-49
2022/04/27 10:04:34;;;;;;;7.47;3.00;;;16.80;57.20;17.60;101702.00;;;;5024801;28;20707;-49
2022/04/27 10:07:01;;;;;;;6.63;2.50;;;16.80;57.70;17.60;101696.00;;;;5008350;28;20521;-52
2022/04/27 10:09:28;;;;;;;6.00;2.80;;;16.80;57.30;17.60;101693.00;;;;5007538;28;20168;-49
2022/04/27 10:11:55;;;;;;;5.63;2.60;;;16.80;57.30;17.60;101691.00;;;;5008733;28;20152;-50
2022/04/27 10:14:22;;;;;;;5.37;2.40;;;16.80;57.10;17.60;101703.00;;;;5008592;28;20458;-49
2022/04/27 10:16:48;;;;;;;6.77;2.50;;;16.80;57.00;17.60;101693.00;;;;5008502;28;20183;-49
2022/04/27 10:19:16;;;;;;;5.13;2.40;;;16.80;57.20;17.70;101669.00;;;;5007575;28;20890;-49
2022/04/27 10:21:43;;;;;;;3.83;2.30;;;16.80;57.00;17.70;101694.00;;;;5009245;28;20271;-49
2022/04/27 10:24:46;;;;;;;5.23;2.60;;;16.90;57.00;17.70;101689.00;;;;5008899;28;20210;-49
2022/04/27 10:27:26;;;;;;;3.73;2.50;;;16.90;57.10;17.70;101696.00;;;;5007835;28;20160;-50
2022/04/27 10:30:08;;;;;;;4.33;2.70;;;16.80;56.90;17.70;101688.00;;;;5008098;28;20163;-50
2022/04/27 10:32:47;;;;;;;5.70;2.80;;;16.90;57.10;17.70;101684.00;;;;5007303;28;20203;-50
2022/04/27 10:35:19;;;;;;;3.23;2.47;;;16.90;57.00;17.70;101684.00;;;;5007598;28;20202;-50
2022/04/27 10:37:57;;;;;;;4.30;2.43;;;16.90;57.30;17.70;101691.00;;;;5007153;28;20874;-49
2022/04/27 10:40:37;;;;;;;3.77;2.40;;;16.90;57.00;17.70;101691.00;;;;5007781;28;20199;-49
2022/04/27 10:43:06;;;;;;;3.73;2.53;;;16.90;57.00;17.70;101686.00;;;;5007018;28;20279;-50
2022/04/27 10:45:42;;;;;;;4.77;2.70;;;17.00;57.10;17.70;101694.00;;;;5006911;28;20210;-51
2022/04/27 10:48:15;;;;;;;3.87;2.63;;;16.90;57.10;17.80;101687.00;;;;5007398;28;20167;-49
2022/04/27 10:50:56;;;;;;;4.70;2.40;;;17.00;57.30;17.80;101688.00;;;;5007215;28;20164;-48
2022/04/27 10:53:23;;;;;;;6.87;2.70;;;17.00;57.10;17.80;101690.00;;;;4934734;28;20325;-50
2022/04/27 10:55:54;;;;;;;3.73;2.40;;;17.00;57.00;17.80;101702.00;;;;5027726;28;20182;-50
2022/04/27 10:58:30;;;;;;;5.53;2.80;;;17.00;56.80;17.80;101696.00;;;;5027038;28;20225;-50
2022/04/27 11:00:58;;;;;;;4.73;2.50;;;17.00;56.80;17.80;101693.00;;;;5027253;28;20178;-50
2022/04/27 11:03:38;;;;;;;5.43;2.40;;;17.00;57.00;17.80;101697.00;;;;5026556;28;20248;-50
2022/04/27 11:06:12;;;;;;;6.40;2.70;;;17.00;57.10;17.80;101681.00;;;;5025799;28;20829;-51
2022/04/27 11:09:22;;;;;;;5.10;2.60;;;17.10;57.10;17.70;101682.00;;;;5026885;28;20174;-51